sensor_id;sensor_type;location;lat;lon;timestamp;pressure;altitude;pressure_sealevel;temperature;humidity
64853;BME280;56050;55.558;-4.644;2023-05-25T00:01:08;103056.75;;;12.38;63.32
64853;BME280;56050;55.558;-4.644;2023-05-25T00:03:33;103064.84;;;12.38;63.50
64853;BME280;56050;55.558;-4.644;2023-05-25T00:06:00;103061.03;;;12.40;63.41
64853;BME280;56050;55.558;-4.644;2023-05-25T00:08:26;103066.09;;;12.41;63.34
64853;BME280;56050;55.558;-4.644;2023-05-25T00:10:52;103069.59;;;12.42;63.31
64853;BME280;56050;55.558;-4.644;2023-05-25T00:13:17;103063.81;;;12.43;63.11
64853;BME280;56050;55.558;-4.644;2023-05-25T00:15:43;103071.16;;;12.43;63.21
64853;BME280;56050;55.558;-4.644;2023-05-25T00:18:08;103062.25;;;12.42;62.95
64853;BME280;56050;55.558;-4.644;2023-05-25T00:20:34;103059.88;;;12.41;62.91
64853;BME280;56050;55.558;-4.644;2023-05-25T00:22:59;103062.59;;;12.41;62.95
64853;BME280;56050;55.558;-4.644;2023-05-25T00:25:27;103059.09;;;12.40;62.87
64853;BME280;56050;55.558;-4.644;2023-05-25T00:27:52;103055.28;;;12.41;62.88
64853;BME280;56050;55.558;-4.644;2023-05-25T00:30:17;103058.41;;;12.43;62.62
64853;BME280;56050;55.558;-4.644;2023-05-25T00:32:43;103061.59;;;12.45;62.58
64853;BME280;56050;55.558;-4.644;2023-05-25T00:35:08;103058.53;;;12.47;62.69
64853;BME280;56050;55.558;-4.644;2023-05-25T00:37:34;103074.88;;;12.50;62.48
64853;BME280;56050;55.558;-4.644;2023-05-25T00:39:59;103072.94;;;12.51;62.40
64853;BME280;56050;55.558;-4.644;2023-05-25T00:42:25;103071.25;;;12.46;62.15
64853;BME280;56050;55.558;-4.644;2023-05-25T00:44:52;103073.41;;;12.41;62.17
64853;BME280;56050;55.558;-4.644;2023-05-25T00:47:18;103068.22;;;12.35;61.99
64853;BME280;56050;55.558;-4.644;2023-05-25T00:49:43;103073.09;;;12.30;62.05
64853;BME280;56050;55.558;-4.644;2023-05-25T00:52:11;103072.97;;;12.26;62.16
64853;BME280;56050;55.558;-4.644;2023-05-25T00:54:37;103070.19;;;12.23;62.24
64853;BME280;56050;55.558;-4.644;2023-05-25T00:57:05;103080.53;;;12.21;62.22
64853;BME280;56050;55.558;-4.644;2023-05-25T00:59:39;103084.69;;;12.18;62.14
64853;BME280;56050;55.558;-4.644;2023-05-25T01:02:08;103087.31;;;12.15;62.31
64853;BME280;56050;55.558;-4.644;2023-05-25T01:04:36;103076.03;;;12.13;62.28
64853;BME280;56050;55.558;-4.644;2023-05-25T01:07:04;103076.25;;;12.08;62.23
64853;BME280;56050;55.558;-4.644;2023-05-25T01:09:32;103078.41;;;12.02;62.26
64853;BME280;56050;55.558;-4.644;2023-05-25T01:11:59;103083.25;;;11.97;62.36
64853;BME280;56050;55.558;-4.644;2023-05-25T01:14:27;103087.09;;;11.96;62.45
64853;BME280;56050;55.558;-4.644;2023-05-25T01:16:53;103082.00;;;11.94;62.45
64853;BME280;56050;55.558;-4.644;2023-05-25T01:19:20;103079.97;;;11.91;62.27
64853;BME280;56050;55.558;-4.644;2023-05-25T01:27:15;103085.72;;;11.77;62.63
64853;BME280;56050;55.558;-4.644;2023-05-25T01:29:44;103076.25;;;11.71;62.50
64853;BME280;56050;55.558;-4.644;2023-05-25T01:32:11;103077.56;;;11.65;62.73
64853;BME280;56050;55.558;-4.644;2023-05-25T01:34:38;103085.06;;;11.60;62.90
64853;BME280;56050;55.558;-4.644;2023-05-25T01:37:04;103084.31;;;11.59;62.97
64853;BME280;56050;55.558;-4.644;2023-05-25T01:39:30;103086.66;;;11.61;62.87
64853;BME280;56050;55.558;-4.644;2023-05-25T01:41:55;103084.09;;;11.64;62.90
64853;BME280;56050;55.558;-4.644;2023-05-25T01:44:22;103095.34;;;11.66;62.76
64853;BME280;56050;55.558;-4.644;2023-05-25T01:46:50;103083.75;;;11.66;62.72
64853;BME280;56050;55.558;-4.644;2023-05-25T01:49:20;103085.56;;;11.62;62.67
64853;BME280;56050;55.558;-4.644;2023-05-25T01:52:06;103093.53;;;11.58;62.78
64853;BME280;56050;55.558;-4.644;2023-05-25T01:54:37;103089.72;;;11.59;62.81
64853;BME280;56050;55.558;-4.644;2023-05-25T01:57:12;103080.03;;;11.58;62.57
64853;BME280;56050;55.558;-4.644;2023-05-25T01:59:41;103093.06;;;11.56;62.65
64853;BME280;56050;55.558;-4.644;2023-05-25T02:02:08;103095.31;;;11.54;62.58
64853;BME280;56050;55.558;-4.644;2023-05-25T02:04:34;103097.25;;;11.54;62.70
64853;BME280;56050;55.558;-4.644;2023-05-25T02:07:00;103091.03;;;11.53;62.71
64853;BME280;56050;55.558;-4.644;2023-05-25T02:09:27;103086.44;;;11.54;62.60
64853;BME280;56050;55.558;-4.644;2023-05-25T02:11:52;103087.19;;;11.54;62.63
64853;BME280;56050;55.558;-4.644;2023-05-25T02:14:18;103088.00;;;11.55;62.50
64853;BME280;56050;55.558;-4.644;2023-05-25T02:16:43;103085.66;;;11.53;62.44
64853;BME280;56050;55.558;-4.644;2023-05-25T02:19:11;103091.72;;;11.50;62.47
64853;BME280;56050;55.558;-4.644;2023-05-25T02:21:39;103087.78;;;11.48;62.50
64853;BME280;56050;55.558;-4.644;2023-05-25T02:24:05;103089.22;;;11.45;62.49
64853;BME280;56050;55.558;-4.644;2023-05-25T02:26:30;103085.94;;;11.40;62.49
64853;BME280;56050;55.558;-4.644;2023-05-25T02:28:56;103089.19;;;11.33;62.49
64853;BME280;56050;55.558;-4.644;2023-05-25T02:31:21;103085.59;;;11.29;62.40
64853;BME280;56050;55.558;-4.644;2023-05-25T02:33:47;103086.47;;;11.21;62.59
64853;BME280;56050;55.558;-4.644;2023-05-25T02:36:12;103089.03;;;11.17;62.68
64853;BME280;56050;55.558;-4.644;2023-05-25T02:38:37;103089.03;;;11.17;62.78
64853;BME280;56050;55.558;-4.644;2023-05-25T02:41:03;103095.22;;;11.18;62.75
64853;BME280;56050;55.558;-4.644;2023-05-25T02:43:28;103097.91;;;11.18;62.68
64853;BME280;56050;55.558;-4.644;2023-05-25T02:45:54;103096.78;;;11.19;62.74
64853;BME280;56050;55.558;-4.644;2023-05-25T02:48:19;103102.97;;;11.19;62.53
64853;BME280;56050;55.558;-4.644;2023-05-25T02:50:46;103101.38;;;11.18;62.52
64853;BME280;56050;55.558;-4.644;2023-05-25T02:53:11;103107.47;;;11.15;62.48
64853;BME280;56050;55.558;-4.644;2023-05-25T02:55:37;103100.81;;;11.13;62.59
64853;BME280;56050;55.558;-4.644;2023-05-25T02:58:04;103096.09;;;11.10;62.48
64853;BME280;56050;55.558;-4.644;2023-05-25T03:00:30;103103.25;;;11.06;62.48
64853;BME280;56050;55.558;-4.644;2023-05-25T03:02:56;103105.72;;;10.99;62.39
64853;BME280;56050;55.558;-4.644;2023-05-25T03:05:21;103101.84;;;10.88;62.57
64853;BME280;56050;55.558;-4.644;2023-05-25T03:07:46;103099.06;;;10.76;62.64
64853;BME280;56050;55.558;-4.644;2023-05-25T03:10:12;103105.75;;;10.70;62.73
64853;BME280;56050;55.558;-4.644;2023-05-25T03:12:37;103118.66;;;10.64;62.74
64853;BME280;56050;55.558;-4.644;2023-05-25T03:15:04;103106.38;;;10.54;62.72
64853;BME280;56050;55.558;-4.644;2023-05-25T03:17:29;103101.81;;;10.46;62.97
64853;BME280;56050;55.558;-4.644;2023-05-25T03:19:54;103112.75;;;10.41;62.83
64853;BME280;56050;55.558;-4.644;2023-05-25T03:22:20;103110.72;;;10.38;62.83
64853;BME280;56050;55.558;-4.644;2023-05-25T03:24:45;103111.72;;;10.34;62.93
64853;BME280;56050;55.558;-4.644;2023-05-25T03:27:11;103113.66;;;10.25;62.90
64853;BME280;56050;55.558;-4.644;2023-05-25T03:29:36;103118.44;;;10.19;63.04
64853;BME280;56050;55.558;-4.644;2023-05-25T03:32:01;103130.53;;;10.13;62.96
64853;BME280;56050;55.558;-4.644;2023-05-25T03:34:28;103128.75;;;10.09;63.10
64853;BME280;56050;55.558;-4.644;2023-05-25T03:36:53;103127.84;;;10.04;63.18
64853;BME280;56050;55.558;-4.644;2023-05-25T03:39:20;103137.47;;;10.05;63.12
64853;BME280;56050;55.558;-4.644;2023-05-25T03:41:46;103139.06;;;10.07;63.14
64853;BME280;56050;55.558;-4.644;2023-05-25T03:44:12;103127.50;;;10.06;63.04
64853;BME280;56050;55.558;-4.644;2023-05-25T03:46:37;103127.69;;;10.01;63.00
64853;BME280;56050;55.558;-4.644;2023-05-25T03:49:03;103128.31;;;9.98;62.97
64853;BME280;56050;55.558;-4.644;2023-05-25T03:51:28;103121.22;;;9.93;63.00
64853;BME280;56050;55.558;-4.644;2023-05-25T03:53:54;103123.13;;;9.93;62.95
64853;BME280;56050;55.558;-4.644;2023-05-25T03:56:20;103117.28;;;9.91;63.06
64853;BME280;56050;55.558;-4.644;2023-05-25T03:58:45;103125.03;;;9.92;63.07
64853;BME280;56050;55.558;-4.644;2023-05-25T04:01:11;103132.31;;;9.92;63.07
64853;BME280;56050;55.558;-4.644;2023-05-25T04:03:37;103124.09;;;9.88;62.96
64853;BME280;56050;55.558;-4.644;2023-05-25T04:06:03;103127.91;;;9.87;63.02
64853;BME280;56050;55.558;-4.644;2023-05-25T04:08:29;103127.09;;;9.87;63.05
64853;BME280;56050;55.558;-4.644;2023-05-25T04:10:54;103130.13;;;9.85;62.98
64853;BME280;56050;55.558;-4.644;2023-05-25T04:13:20;103138.97;;;9.86;62.96
64853;BME280;56050;55.558;-4.644;2023-05-25T04:15:46;103138.97;;;9.86;62.89
64853;BME280;56050;55.558;-4.644;2023-05-25T04:18:11;103142.78;;;9.85;62.82
64853;BME280;56050;55.558;-4.644;2023-05-25T04:20:37;103144.69;;;9.84;62.93
64853;BME280;56050;55.558;-4.644;2023-05-25T04:23:02;103147.03;;;9.86;62.95
64853;BME280;56050;55.558;-4.644;2023-05-25T04:25:28;103140.91;;;9.85;62.96
64853;BME280;56050;55.558;-4.644;2023-05-25T04:27:53;103153.56;;;9.85;63.00
64853;BME280;56050;55.558;-4.644;2023-05-25T04:30:21;103162.75;;;9.84;62.96
64853;BME280;56050;55.558;-4.644;2023-05-25T04:32:46;103159.25;;;9.83;62.92
64853;BME280;56050;55.558;-4.644;2023-05-25T04:35:11;103154.66;;;9.84;62.93
64853;BME280;56050;55.558;-4.644;2023-05-25T04:37:39;103150.53;;;9.86;63.09
64853;BME280;56050;55.558;-4.644;2023-05-25T04:40:05;103158.75;;;9.90;62.96
64853;BME280;56050;55.558;-4.644;2023-05-25T04:42:35;103156.88;;;9.90;62.83
64853;BME280;56050;55.558;-4.644;2023-05-25T04:45:03;103157.66;;;9.91;62.90
64853;BME280;56050;55.558;-4.644;2023-05-25T04:47:28;103159.56;;;9.90;62.82
64853;BME280;56050;55.558;-4.644;2023-05-25T04:49:55;103166.50;;;9.91;62.93
64853;BME280;56050;55.558;-4.644;2023-05-25T04:52:20;103161.13;;;9.91;63.01
64853;BME280;56050;55.558;-4.644;2023-05-25T04:54:46;103163.50;;;9.93;63.00
64853;BME280;56050;55.558;-4.644;2023-05-25T04:57:11;103169.81;;;9.97;63.05
64853;BME280;56050;55.558;-4.644;2023-05-25T04:59:37;103178.50;;;10.02;63.14
64853;BME280;56050;55.558;-4.644;2023-05-25T05:02:02;103165.19;;;10.06;62.91
64853;BME280;56050;55.558;-4.644;2023-05-25T05:04:28;103169.94;;;10.09;62.85
64853;BME280;56050;55.558;-4.644;2023-05-25T05:06:53;103170.41;;;10.11;62.95
64853;BME280;56050;55.558;-4.644;2023-05-25T05:09:19;103167.09;;;10.14;62.82
64853;BME280;56050;55.558;-4.644;2023-05-25T05:11:44;103173.09;;;10.20;63.09
64853;BME280;56050;55.558;-4.644;2023-05-25T05:14:10;103169.72;;;10.31;63.21
64853;BME280;56050;55.558;-4.644;2023-05-25T05:16:35;103170.75;;;10.47;63.20
64853;BME280;56050;55.558;-4.644;2023-05-25T05:19:01;103177.63;;;10.66;63.12
64853;BME280;56050;55.558;-4.644;2023-05-25T05:21:27;103177.06;;;10.81;62.95
64853;BME280;56050;55.558;-4.644;2023-05-25T05:23:53;103174.44;;;10.93;63.05
64853;BME280;56050;55.558;-4.644;2023-05-25T05:26:18;103169.59;;;11.07;62.60
64853;BME280;56050;55.558;-4.644;2023-05-25T05:28:45;103172.31;;;11.19;62.56
64853;BME280;56050;55.558;-4.644;2023-05-25T05:31:10;103178.91;;;11.30;62.47
64853;BME280;56050;55.558;-4.644;2023-05-25T05:33:36;103186.59;;;11.40;62.46
64853;BME280;56050;55.558;-4.644;2023-05-25T05:36:01;103187.78;;;11.51;62.45
64853;BME280;56050;55.558;-4.644;2023-05-25T05:38:27;103182.19;;;11.68;62.58
64853;BME280;56050;55.558;-4.644;2023-05-25T05:40:53;103179.34;;;11.86;62.53
64853;BME280;56050;55.558;-4.644;2023-05-25T05:43:18;103193.09;;;12.05;62.36
64853;BME280;56050;55.558;-4.644;2023-05-25T05:45:44;103190.31;;;12.25;62.29
64853;BME280;56050;55.558;-4.644;2023-05-25T05:48:09;103197.31;;;12.51;62.27
64853;BME280;56050;55.558;-4.644;2023-05-25T05:50:38;103195.38;;;12.75;61.95
64853;BME280;56050;55.558;-4.644;2023-05-25T05:53:04;103194.22;;;12.88;61.54
64853;BME280;56050;55.558;-4.644;2023-05-25T05:55:30;103199.94;;;12.99;61.43
64853;BME280;56050;55.558;-4.644;2023-05-25T05:57:56;103201.88;;;13.11;61.47
64853;BME280;56050;55.558;-4.644;2023-05-25T06:00:21;103199.84;;;13.20;61.38
64853;BME280;56050;55.558;-4.644;2023-05-25T06:02:47;103206.78;;;13.33;61.41
64853;BME280;56050;55.558;-4.644;2023-05-25T06:05:13;103206.66;;;13.57;61.29
64853;BME280;56050;55.558;-4.644;2023-05-25T06:07:38;103207.16;;;13.75;61.16
64853;BME280;56050;55.558;-4.644;2023-05-25T06:10:04;103213.97;;;13.84;60.74
64853;BME280;56050;55.558;-4.644;2023-05-25T06:12:30;103218.44;;;13.92;60.41
64853;BME280;56050;55.558;-4.644;2023-05-25T06:14:55;103217.59;;;14.04;60.61
64853;BME280;56050;55.558;-4.644;2023-05-25T06:17:22;103222.56;;;14.18;60.50
64853;BME280;56050;55.558;-4.644;2023-05-25T06:19:48;103228.72;;;14.30;60.35
64853;BME280;56050;55.558;-4.644;2023-05-25T06:22:15;103228.22;;;14.40;60.26
64853;BME280;56050;55.558;-4.644;2023-05-25T06:24:40;103235.00;;;14.50;60.17
64853;BME280;56050;55.558;-4.644;2023-05-25T06:27:06;103222.84;;;14.59;59.98
64853;BME280;56050;55.558;-4.644;2023-05-25T06:29:31;103227.66;;;14.66;59.61
64853;BME280;56050;55.558;-4.644;2023-05-25T06:31:57;103231.94;;;14.67;59.74
64853;BME280;56050;55.558;-4.644;2023-05-25T06:34:22;103228.38;;;14.63;59.39
64853;BME280;56050;55.558;-4.644;2023-05-25T06:36:48;103227.84;;;14.57;59.37
64853;BME280;56050;55.558;-4.644;2023-05-25T06:39:13;103230.47;;;14.54;59.30
64853;BME280;56050;55.558;-4.644;2023-05-25T06:41:39;103228.19;;;14.56;59.60
64853;BME280;56050;55.558;-4.644;2023-05-25T06:44:05;103237.63;;;14.62;59.60
64853;BME280;56050;55.558;-4.644;2023-05-25T06:46:31;103234.66;;;14.67;59.62
64853;BME280;56050;55.558;-4.644;2023-05-25T06:48:58;103228.00;;;14.80;59.50
64853;BME280;56050;55.558;-4.644;2023-05-25T06:51:24;103232.84;;;14.90;58.88
64853;BME280;56050;55.558;-4.644;2023-05-25T06:53:54;103244.50;;;14.91;58.71
64853;BME280;56050;55.558;-4.644;2023-05-25T06:56:20;103234.00;;;14.89;59.08
64853;BME280;56050;55.558;-4.644;2023-05-25T06:58:45;103242.88;;;15.05;59.04
64853;BME280;56050;55.558;-4.644;2023-05-25T07:01:11;103241.97;;;15.17;58.91
64853;BME280;56050;55.558;-4.644;2023-05-25T07:03:36;103248.69;;;15.23;58.94
64853;BME280;56050;55.558;-4.644;2023-05-25T07:06:03;103241.84;;;15.29;58.59
64853;BME280;56050;55.558;-4.644;2023-05-25T07:08:29;103241.47;;;15.30;58.33
64853;BME280;56050;55.558;-4.644;2023-05-25T07:10:54;103246.41;;;15.25;58.08
64853;BME280;56050;55.558;-4.644;2023-05-25T07:13:20;103248.28;;;15.21;58.22
64853;BME280;56050;55.558;-4.644;2023-05-25T07:15:45;103242.88;;;15.24;58.40
64853;BME280;56050;55.558;-4.644;2023-05-25T07:18:11;103244.13;;;15.27;57.87
64853;BME280;56050;55.558;-4.644;2023-05-25T07:20:38;103246.91;;;15.30;58.40
64853;BME280;56050;55.558;-4.644;2023-05-25T07:23:07;103252.63;;;15.45;58.22
64853;BME280;56050;55.558;-4.644;2023-05-25T07:25:33;103245.22;;;15.61;58.46
64853;BME280;56050;55.558;-4.644;2023-05-25T07:27:58;103241.97;;;15.74;57.30
64853;BME280;56050;55.558;-4.644;2023-05-25T07:30:24;103238.91;;;15.76;56.92
64853;BME280;56050;55.558;-4.644;2023-05-25T07:32:49;103238.50;;;15.74;57.12
64853;BME280;56050;55.558;-4.644;2023-05-25T07:35:15;103226.75;;;15.70;57.02
64853;BME280;56050;55.558;-4.644;2023-05-25T07:37:40;103237.75;;;15.77;57.07
64853;BME280;56050;55.558;-4.644;2023-05-25T07:40:06;103240.19;;;15.82;57.02
64853;BME280;56050;55.558;-4.644;2023-05-25T07:42:32;103232.53;;;15.88;57.08
64853;BME280;56050;55.558;-4.644;2023-05-25T07:44:59;103234.66;;;15.98;56.88
64853;BME280;56050;55.558;-4.644;2023-05-25T07:47:25;103234.75;;;16.05;56.04
64853;BME280;56050;55.558;-4.644;2023-05-25T07:49:51;103234.00;;;16.04;55.71
64853;BME280;56050;55.558;-4.644;2023-05-25T07:52:16;103242.88;;;16.01;56.07
64853;BME280;56050;55.558;-4.644;2023-05-25T07:54:43;103245.78;;;16.12;56.18
64853;BME280;56050;55.558;-4.644;2023-05-25T07:57:09;103241.66;;;16.21;55.72
64853;BME280;56050;55.558;-4.644;2023-05-25T07:59:35;103239.78;;;16.25;55.57
64853;BME280;56050;55.558;-4.644;2023-05-25T08:02:00;103243.66;;;16.24;55.08
64853;BME280;56050;55.558;-4.644;2023-05-25T08:04:26;103250.25;;;16.23;54.71
64853;BME280;56050;55.558;-4.644;2023-05-25T08:06:51;103248.19;;;16.17;54.44
64853;BME280;56050;55.558;-4.644;2023-05-25T08:09:17;103246.59;;;16.16;55.22
64853;BME280;56050;55.558;-4.644;2023-05-25T08:11:42;103249.78;;;16.18;55.01
64853;BME280;56050;55.558;-4.644;2023-05-25T08:14:10;103252.50;;;16.18;54.60
64853;BME280;56050;55.558;-4.644;2023-05-25T08:16:35;103263.66;;;16.13;54.69
64853;BME280;56050;55.558;-4.644;2023-05-25T08:19:01;103260.81;;;16.06;54.32
64853;BME280;56050;55.558;-4.644;2023-05-25T08:21:26;103271.56;;;15.99;54.90
64853;BME280;56050;55.558;-4.644;2023-05-25T08:23:52;103256.69;;;15.93;54.78
64853;BME280;56050;55.558;-4.644;2023-05-25T08:26:18;103259.41;;;15.93;54.75
64853;BME280;56050;55.558;-4.644;2023-05-25T08:28:43;103260.94;;;15.90;54.88
64853;BME280;56050;55.558;-4.644;2023-05-25T08:31:09;103261.28;;;15.88;54.98
64853;BME280;56050;55.558;-4.644;2023-05-25T08:33:36;103269.38;;;15.85;55.16
64853;BME280;56050;55.558;-4.644;2023-05-25T08:36:01;103274.81;;;15.85;54.90
64853;BME280;56050;55.558;-4.644;2023-05-25T08:38:27;103269.72;;;15.83;54.95
64853;BME280;56050;55.558;-4.644;2023-05-25T08:41:01;103273.97;;;15.81;54.80
64853;BME280;56050;55.558;-4.644;2023-05-25T08:43:28;103279.69;;;15.76;55.12
64853;BME280;56050;55.558;-4.644;2023-05-25T08:46:02;103271.81;;;15.71;55.43
64853;BME280;56050;55.558;-4.644;2023-05-25T08:48:29;103273.34;;;15.68;55.64
64853;BME280;56050;55.558;-4.644;2023-05-25T08:50:58;103275.31;;;15.71;55.85
64853;BME280;56050;55.558;-4.644;2023-05-25T08:53:25;103276.09;;;15.72;55.74
64853;BME280;56050;55.558;-4.644;2023-05-25T08:55:53;103270.25;;;15.70;55.88
64853;BME280;56050;55.558;-4.644;2023-05-25T08:58:25;103280.41;;;15.73;56.09
64853;BME280;56050;55.558;-4.644;2023-05-25T09:00:57;103270.25;;;15.70;56.43
64853;BME280;56050;55.558;-4.644;2023-05-25T09:03:28;103270.16;;;15.66;56.22
64853;BME280;56050;55.558;-4.644;2023-05-25T09:05:55;103281.03;;;15.66;56.26
64853;BME280;56050;55.558;-4.644;2023-05-25T09:08:21;103274.09;;;15.69;56.12
64853;BME280;56050;55.558;-4.644;2023-05-25T09:10:47;103279.13;;;15.67;55.97
64853;BME280;56050;55.558;-4.644;2023-05-25T09:13:14;103277.81;;;15.61;56.07
64853;BME280;56050;55.558;-4.644;2023-05-25T09:15:40;103278.53;;;15.58;56.41
64853;BME280;56050;55.558;-4.644;2023-05-25T09:18:05;103280.50;;;15.57;56.70
64853;BME280;56050;55.558;-4.644;2023-05-25T09:20:31;103277.78;;;15.57;56.30
64853;BME280;56050;55.558;-4.644;2023-05-25T09:22:57;103278.13;;;15.56;56.35
64853;BME280;56050;55.558;-4.644;2023-05-25T09:25:27;103278.13;;;15.56;55.99
64853;BME280;56050;55.558;-4.644;2023-05-25T09:27:54;103283.13;;;15.54;55.80
64853;BME280;56050;55.558;-4.644;2023-05-25T09:30:22;103277.19;;;15.48;55.54
64853;BME280;56050;55.558;-4.644;2023-05-25T09:32:47;103274.38;;;15.45;55.66
64853;BME280;56050;55.558;-4.644;2023-05-25T09:35:14;103277.78;;;15.42;56.09
64853;BME280;56050;55.558;-4.644;2023-05-25T09:37:41;103278.94;;;15.41;56.43
64853;BME280;56050;55.558;-4.644;2023-05-25T09:40:07;103277.38;;;15.40;55.99
64853;BME280;56050;55.558;-4.644;2023-05-25T09:42:35;103277.38;;;15.40;56.12
64853;BME280;56050;55.558;-4.644;2023-05-25T09:45:01;103279.38;;;15.43;56.57
64853;BME280;56050;55.558;-4.644;2023-05-25T09:47:27;103290.78;;;15.48;56.45
64853;BME280;56050;55.558;-4.644;2023-05-25T09:49:53;103287.25;;;15.48;56.46
64853;BME280;56050;55.558;-4.644;2023-05-25T09:52:18;103286.03;;;15.45;56.42
64853;BME280;56050;55.558;-4.644;2023-05-25T09:54:46;103282.38;;;15.38;56.37
64853;BME280;56050;55.558;-4.644;2023-05-25T09:57:12;103283.44;;;15.33;56.31
64853;BME280;56050;55.558;-4.644;2023-05-25T09:59:37;103284.59;;;15.32;56.22
64853;BME280;56050;55.558;-4.644;2023-05-25T10:02:03;103288.81;;;15.29;56.59
64853;BME280;56050;55.558;-4.644;2023-05-25T10:04:28;103280.91;;;15.24;55.96
64853;BME280;56050;55.558;-4.644;2023-05-25T10:06:54;103290.06;;;15.16;55.67
64853;BME280;56050;55.558;-4.644;2023-05-25T10:09:21;103279.84;;;15.10;56.16
64853;BME280;56050;55.558;-4.644;2023-05-25T10:11:50;103281.34;;;15.07;56.60
64853;BME280;56050;55.558;-4.644;2023-05-25T10:14:19;103283.69;;;15.09;56.81
64853;BME280;56050;55.558;-4.644;2023-05-25T10:16:47;103288.91;;;15.17;57.12
64853;BME280;56050;55.558;-4.644;2023-05-25T10:19:24;103284.38;;;15.21;56.58
64853;BME280;56050;55.558;-4.644;2023-05-25T10:22:01;103292.66;;;15.28;56.54
64853;BME280;56050;55.558;-4.644;2023-05-25T10:27:08;103281.94;;;15.36;56.46
64853;BME280;56050;55.558;-4.644;2023-05-25T10:29:36;103285.88;;;15.38;56.35
64853;BME280;56050;55.558;-4.644;2023-05-25T10:32:04;103285.94;;;15.42;56.58
64853;BME280;56050;55.558;-4.644;2023-05-25T10:34:30;103284.44;;;15.44;56.39
64853;BME280;56050;55.558;-4.644;2023-05-25T10:36:57;103283.41;;;15.49;56.64
64853;BME280;56050;55.558;-4.644;2023-05-25T10:39:22;103273.41;;;15.53;56.50
64853;BME280;56050;55.558;-4.644;2023-05-25T10:41:50;103277.78;;;15.57;56.12
64853;BME280;56050;55.558;-4.644;2023-05-25T10:44:16;103275.81;;;15.58;55.52
64853;BME280;56050;55.558;-4.644;2023-05-25T10:46:43;103274.69;;;15.59;55.60
64853;BME280;56050;55.558;-4.644;2023-05-25T10:49:09;103271.34;;;15.65;55.72
64853;BME280;56050;55.558;-4.644;2023-05-25T10:51:38;103268.75;;;15.72;55.66
64853;BME280;56050;55.558;-4.644;2023-05-25T10:54:04;103274.25;;;15.76;55.61
64853;BME280;56050;55.558;-4.644;2023-05-25T10:56:30;103271.16;;;15.77;55.43
64853;BME280;56050;55.558;-4.644;2023-05-25T10:58:56;103275.09;;;15.80;55.50
64853;BME280;56050;55.558;-4.644;2023-05-25T11:01:22;103272.88;;;15.85;55.79
64853;BME280;56050;55.558;-4.644;2023-05-25T11:03:53;103273.00;;;15.93;55.56
64853;BME280;56050;55.558;-4.644;2023-05-25T11:09:29;103277.06;;;16.02;54.89
64853;BME280;56050;55.558;-4.644;2023-05-25T11:14:27;103275.75;;;16.15;54.63
64853;BME280;56050;55.558;-4.644;2023-05-25T11:17:17;103271.53;;;16.18;54.89
64853;BME280;56050;55.558;-4.644;2023-05-25T11:19:54;103273.56;;;16.24;54.72
64853;BME280;56050;55.558;-4.644;2023-05-25T11:22:30;103269.72;;;16.25;54.90
64853;BME280;56050;55.558;-4.644;2023-05-25T11:24:57;103269.72;;;16.25;54.99
64853;BME280;56050;55.558;-4.644;2023-05-25T11:27:31;103262.69;;;16.24;54.99
64853;BME280;56050;55.558;-4.644;2023-05-25T11:30:09;103261.97;;;16.27;54.78
64853;BME280;56050;55.558;-4.644;2023-05-25T11:32:35;103258.09;;;16.28;54.93
64853;BME280;56050;55.558;-4.644;2023-05-25T11:35:05;103256.22;;;16.32;54.89
64853;BME280;56050;55.558;-4.644;2023-05-25T11:37:33;103258.66;;;16.37;53.93
64853;BME280;56050;55.558;-4.644;2023-05-25T11:39:58;103250.50;;;16.37;53.80
64853;BME280;56050;55.558;-4.644;2023-05-25T11:42:24;103255.97;;;16.41;53.94
64853;BME280;56050;55.558;-4.644;2023-05-25T11:44:50;103255.31;;;16.48;53.92
64853;BME280;56050;55.558;-4.644;2023-05-25T11:47:18;103261.97;;;16.50;53.62
64853;BME280;56050;55.558;-4.644;2023-05-25T11:49:47;103260.13;;;16.54;53.84
64853;BME280;56050;55.558;-4.644;2023-05-25T11:52:15;103253.91;;;16.54;54.07
64853;BME280;56050;55.558;-4.644;2023-05-25T11:54:41;103262.75;;;16.51;54.43
64853;BME280;56050;55.558;-4.644;2023-05-25T11:57:15;103258.44;;;16.50;54.55
64853;BME280;56050;55.558;-4.644;2023-05-25T11:59:49;103254.59;;;16.51;54.45
64853;BME280;56050;55.558;-4.644;2023-05-25T12:02:15;103263.09;;;16.49;54.20
64853;BME280;56050;55.558;-4.644;2023-05-25T12:04:51;103267.34;;;16.46;54.49
64853;BME280;56050;55.558;-4.644;2023-05-25T12:07:17;103257.63;;;16.45;54.77
64853;BME280;56050;55.558;-4.644;2023-05-25T12:09:42;103262.69;;;16.47;54.48
64853;BME280;56050;55.558;-4.644;2023-05-25T12:12:08;103264.31;;;16.52;54.32
64853;BME280;56050;55.558;-4.644;2023-05-25T12:14:33;103266.41;;;16.58;53.69
64853;BME280;56050;55.558;-4.644;2023-05-25T12:17:04;103269.97;;;16.62;52.86
64853;BME280;56050;55.558;-4.644;2023-05-25T12:19:30;103276.25;;;16.66;53.01
64853;BME280;56050;55.558;-4.644;2023-05-25T12:21:56;103270.47;;;16.71;52.30
64853;BME280;56050;55.558;-4.644;2023-05-25T12:24:22;103266.28;;;16.77;52.23
64853;BME280;56050;55.558;-4.644;2023-05-25T12:26:51;103271.44;;;16.82;51.66
64853;BME280;56050;55.558;-4.644;2023-05-25T12:29:22;103272.34;;;16.90;51.08
64853;BME280;56050;55.558;-4.644;2023-05-25T12:31:49;103268.84;;;16.93;50.25
64853;BME280;56050;55.558;-4.644;2023-05-25T12:34:16;103263.72;;;16.88;50.29
64853;BME280;56050;55.558;-4.644;2023-05-25T12:36:48;103267.19;;;16.85;50.91
64853;BME280;56050;55.558;-4.644;2023-05-25T12:41:59;103269.88;;;16.81;50.47
64853;BME280;56050;55.558;-4.644;2023-05-25T12:49:36;103265.31;;;16.89;51.18
64853;BME280;56050;55.558;-4.644;2023-05-25T12:52:03;103261.84;;;16.92;51.22
64853;BME280;56050;55.558;-4.644;2023-05-25T12:56:59;103258.75;;;16.93;50.34
64853;BME280;56050;55.558;-4.644;2023-05-25T12:59:26;103263.06;;;16.94;50.84
64853;BME280;56050;55.558;-4.644;2023-05-25T13:01:51;103251.44;;;16.97;50.71